Time;durP1;ratioP1;P1;durP2;ratioP2;P2;SDS_P1;SDS_P2;PMS_P1;PMS_P2;Temp;Humidity;BMP_temperature;BMP_pressure;BME280_temperature;BME280_humidity;BME280_pressure;Samples;Min_cycle;Max_cycle;Signal;HPM_P1;HPM_P2
2023/08/16 00:16:22;;;;;;;7.45;4.93;;;;;;;24.88;50.80;100530.56;41440745;28;20046;-76
2023/08/16 00:36:30;;;;;;;9.75;5.32;;;;;;;23.93;52.04;100440.19;41390123;28;20069;-75
2023/08/16 00:56:31;;;;;;;11.35;5.60;;;;;;;24.30;53.34;100518.91;41269400;28;20057;-75
2023/08/16 01:16:34;;;;;;;13.55;5.72;;;;;;;24.19;53.86;100487.28;41255679;28;20076;-75
2023/08/16 01:36:34;;;;;;;8.65;6.22;;;;;;;24.12;54.67;100509.00;41293808;28;20584;-76
2023/08/16 01:56:36;;;;;;;11.10;6.57;;;;;;;24.29;54.50;100504.00;41424732;28;20129;-76
2023/08/16 02:16:38;;;;;;;9.50;6.50;;;;;;;24.14;56.13;100508.84;41379078;28;20046;-76
2023/08/16 02:36:39;;;;;;;7.75;6.05;;;;;;;24.03;56.66;100499.22;41296164;28;20405;-75
2023/08/16 02:56:49;;;;;;;9.88;6.80;;;;;;;23.65;57.18;100459.25;41362710;28;20049;-75
2023/08/16 03:16:49;;;;;;;14.57;6.40;;;;;;;23.79;57.83;100523.31;41322184;28;20053;-75
2023/08/16 03:36:50;;;;;;;11.68;6.57;;;;;;;23.64;57.98;100514.91;41442379;28;20045;-75
2023/08/16 03:56:51;;;;;;;12.10;6.97;;;;;;;23.47;57.86;100505.78;41453611;28;20465;-75
2023/08/16 04:16:52;;;;;;;10.80;7.30;;;;;;;23.67;57.55;100543.75;41403303;28;20113;-76
2023/08/16 04:37:01;;;;;;;18.98;6.82;;;;;;;23.46;57.43;100519.97;41452726;28;20058;-77
2023/08/16 04:57:02;;;;;;;13.82;7.18;;;;;;;23.64;57.69;100547.47;41472618;28;20072;-75
2023/08/16 05:17:03;;;;;;;12.95;6.45;;;;;;;23.80;58.21;100541.72;41475119;28;20559;-76
2023/08/16 05:37:05;;;;;;;13.85;7.43;;;;;;;23.73;58.54;100543.22;41516085;28;20112;-83
2023/08/16 05:57:05;;;;;;;13.30;7.07;;;;;;;24.01;58.75;100571.75;41557239;28;20057;-83
2023/08/16 06:17:06;;;;;;;10.63;6.88;;;;;;;24.40;56.68;100558.63;41568738;28;20136;-82
2023/08/16 06:37:09;;;;;;;10.05;6.93;;;;;;;24.55;55.12;100519.38;41520060;28;20052;-82
2023/08/16 06:57:11;;;;;;;9.02;6.70;;;;;;;25.14;54.72;100559.13;41467753;28;20600;-77
2023/08/16 07:17:12;;;;;;;9.95;6.38;;;;;;;25.23;54.79;100522.03;41507815;28;20132;-76
2023/08/16 07:37:13;;;;;;;9.18;6.65;;;;;;;25.35;54.44;100527.16;41506249;28;20045;-81
2023/08/16 07:57:13;;;;;;;7.10;6.30;;;;;;;25.50;54.04;100583.22;41456928;28;20077;-79
2023/08/16 08:17:14;;;;;;;9.90;6.55;;;;;;;25.75;54.17;100603.00;41426500;28;20524;-75
2023/08/16 08:37:16;;;;;;;11.80;7.80;;;;;;;25.78;54.28;100596.56;41414295;28;20168;-81
2023/08/16 08:57:18;;;;;;;12.00;8.18;;;;;;;26.40;53.10;100617.31;41457171;28;20046;-74
2023/08/16 09:17:22;;;;;;;12.07;7.68;;;;;;;26.43;52.25;100625.81;41477784;28;20141;-85
2023/08/16 09:37:23;;;;;;;12.77;7.63;;;;;;;26.18;51.46;100587.50;41481950;28;20543;-83
2023/08/16 09:57:24;;;;;;;11.25;7.40;;;;;;;26.42;50.01;100613.50;41511829;28;20046;-79
2023/08/16 10:17:24;;;;;;;9.35;6.45;;;;;;;26.44;48.33;100621.31;41512199;28;20128;-79
2023/08/16 10:37:26;;;;;;;8.95;7.07;;;;;;;26.30;47.96;100604.09;41510721;28;20485;-77
2023/08/16 10:57:26;;;;;;;11.73;7.00;;;;;;;23.70;48.20;100149.56;41515880;28;20046;-78
2023/08/16 11:17:27;;;;;;;14.45;7.45;;;;;;;27.16;48.17;100616.94;41509740;28;20045;-78
2023/08/16 11:37:28;;;;;;;13.57;7.50;;;;;;;27.50;48.30;100586.16;41514586;28;20038;-79
2023/08/16 11:57:29;;;;;;;18.48;8.70;;;;;;;27.81;47.26;100577.69;41324936;28;20545;-83
2023/08/16 12:17:32;;;;;;;11.65;7.97;;;;;;;27.87;48.07;100554.94;41369002;28;20076;-80
2023/08/16 12:37:32;;;;;;;9.57;7.30;;;;;;;27.58;48.16;100546.31;41444156;28;20038;-77
2023/08/16 12:57:33;;;;;;;9.38;6.97;;;;;;;27.66;47.79;100523.41;41401228;28;20163;-79
2023/08/16 13:17:33;;;;;;;8.05;6.68;;;;;;;27.59;46.07;100513.41;41467789;28;20046;-80
2023/08/16 13:37:33;;;;;;;9.10;6.57;;;;;;;28.04;46.15;100495.47;41454885;28;20080;-79
2023/08/16 13:57:34;;;;;;;11.82;7.50;;;;;;;27.78;46.29;100479.56;41451955;28;20409;-80
2023/08/16 14:17:34;;;;;;;8.27;7.35;;;;;;;27.86;46.06;100471.63;41500126;28;20092;-84
2023/08/16 14:37:35;;;;;;;12.75;8.38;;;;;;;27.75;46.66;100456.78;41520222;28;20042;-78
2023/08/16 14:57:36;;;;;;;9.82;7.18;;;;;;;27.90;46.92;100469.47;41471284;28;20049;-80
2023/08/16 15:17:37;;;;;;;9.73;7.25;;;;;;;28.07;47.12;100460.53;41511820;28;20045;-79
2023/08/16 15:37:38;;;;;;;9.15;6.38;;;;;;;28.18;46.54;100434.63;41442153;28;20098;-72
2023/08/16 15:57:39;;;;;;;9.10;6.28;;;;;;;28.33;44.16;100430.31;41436591;28;20049;-72
2023/08/16 16:17:39;;;;;;;7.03;5.90;;;;;;;28.40;43.79;100406.50;41424650;28;20037;-73
2023/08/16 16:37:41;;;;;;;8.73;6.20;;;;;;;28.48;43.23;100409.19;41453953;28;20112;-69
2023/08/16 16:57:42;;;;;;;11.40;5.63;;;;;;;27.88;45.91;100421.72;41433724;28;20092;-78
2023/08/16 17:17:43;;;;;;;13.57;5.93;;;;;;;27.86;45.68;100430.88;41441715;28;20079;-75
2023/08/16 17:37:43;;;;;;;7.15;5.95;;;;;;;27.64;45.65;100419.81;41469232;28;20061;-75
2023/08/16 17:57:45;;;;;;;15.18;5.72;;;;;;;26.99;46.77;100463.69;41409054;28;20134;-76
2023/08/16 18:17:46;;;;;;;13.10;5.70;;;;;;;27.71;49.97;100625.69;41564892;28;20065;-77
2023/08/16 18:37:47;;;;;;;8.98;5.38;;;;;;;27.67;51.95;100613.69;41545499;28;20053;-78
2023/08/16 18:57:49;;;;;;;9.52;5.57;;;;;;;27.30;53.55;100573.00;41488252;28;20525;-81
2023/08/16 19:17:51;;;;;;;7.57;4.72;;;;;;;26.16;56.77;100573.56;41508703;28;20068;-80
2023/08/16 19:37:53;;;;;;;5.20;4.45;;;;;;;25.54;58.52;100600.56;41544311;28;20102;-77
2023/08/16 19:57:55;;;;;;;6.50;5.73;;;;;;;24.83;63.24;100599.84;41517776;28;20565;-78
2023/08/16 20:17:57;;;;;;;7.60;5.53;;;;;;;24.68;63.04;100593.28;41564560;28;20708;-75
2023/08/16 20:37:58;;;;;;;6.97;6.18;;;;;;;24.28;65.29;100587.84;41564329;28;20072;-76
2023/08/16 20:57:58;;;;;;;8.80;5.82;;;;;;;24.18;65.03;100579.06;41550567;28;20112;-82
2023/08/16 21:18:00;;;;;;;8.10;6.18;;;;;;;23.79;65.65;100507.44;41537570;28;20220;-81
2023/08/16 21:38:06;;;;;;;10.82;6.97;;;;;;;23.96;66.77;100545.69;41544975;28;20057;-81
2023/08/16 21:58:07;;;;;;;10.93;7.53;;;;;;;24.03;65.96;100577.75;41558051;28;20034;-78
2023/08/16 22:18:08;;;;;;;10.95;6.90;;;;;;;23.85;66.75;100577.47;41544604;28;20069;-77
2023/08/16 22:38:08;;;;;;;12.13;7.20;;;;;;;23.49;68.64;100580.50;41537748;28;20056;-77
2023/08/16 22:58:11;;;;;;;10.73;7.65;;;;;;;23.43;68.66;100546.66;41541153;28;20050;-78
2023/08/16 23:18:11;;;;;;;10.55;8.50;;;;;;;23.36;68.67;100554.25;41574913;28;20512;-78
2023/08/16 23:38:12;;;;;;;12.63;9.20;;;;;;;23.15;69.48;100541.84;41587127;28;20050;-78
2023/08/16 23:58:12;;;;;;;11.45;9.45;;;;;;;23.09;69.92;100581.16;41561920;28;20044;-78
